Time;durP1;ratioP1;P1;durP2;ratioP2;P2;SDS_P1;SDS_P2;PMS_P1;PMS_P2;Temp;Humidity;BMP_temperature;BMP_pressure;BME280_temperature;BME280_humidity;BME280_pressure;Samples;Min_cycle;Max_cycle;Signal;HPM_P1;HPM_P2
2022/05/06 00:01:46;;;;;;;1.33;1.33;;;7.10;99.90;;;;;;5019851;28;20037;-75
2022/05/06 00:04:14;;;;;;;0.30;0.30;;;7.10;99.90;;;;;;5005807;28;20041;-75
2022/05/06 00:06:40;;;;;;;0.30;0.30;;;7.10;99.90;;;;;;5011023;28;20072;-75
2022/05/06 00:09:05;;;;;;;0.20;0.20;;;7.10;99.90;;;;;;5030271;28;20164;-75
2022/05/06 00:11:31;;;;;;;0.30;0.30;;;7.10;99.90;;;;;;5015590;28;20144;-75
2022/05/06 00:13:57;;;;;;;1.40;1.30;;;7.10;99.90;;;;;;5033247;28;20053;-75
2022/05/06 00:16:24;;;;;;;3.83;2.83;;;7.10;99.90;;;;;;5032694;28;20546;-75
2022/05/06 00:18:52;;;;;;;0.20;0.20;;;7.10;99.90;;;;;;5013960;28;20106;-75
2022/05/06 00:21:18;;;;;;;0.60;0.60;;;7.00;99.90;;;;;;4997385;28;20095;-75
2022/05/06 00:23:44;;;;;;;0.30;0.30;;;7.00;99.90;;;;;;4997325;28;20063;-75
2022/05/06 00:26:10;;;;;;;0.65;0.65;;;6.90;99.90;;;;;;5014055;28;20378;-75
2022/05/06 00:28:37;;;;;;;0.20;0.20;;;6.90;99.90;;;;;;5031940;28;20447;-75
2022/05/06 00:31:03;;;;;;;0.22;0.22;;;6.80;99.90;;;;;;5016834;28;20044;-74
2022/05/06 00:33:30;;;;;;;0.38;0.38;;;6.80;99.90;;;;;;5051036;28;20392;-75
2022/05/06 00:35:58;;;;;;;0.55;0.55;;;6.70;99.90;;;;;;5033930;28;20051;-75
2022/05/06 00:38:24;;;;;;;0.82;0.82;;;6.70;99.90;;;;;;5023382;28;20166;-74
2022/05/06 00:40:51;;;;;;;7.15;3.33;;;6.70;99.90;;;;;;5032573;28;20055;-75
2022/05/06 00:43:17;;;;;;;10.85;5.30;;;6.60;99.90;;;;;;5049675;28;20037;-75
2022/05/06 00:45:53;;;;;;;6.72;2.55;;;6.70;99.90;;;;;;5015534;28;20045;-75
2022/05/06 00:48:24;;;;;;;1.27;1.25;;;6.80;99.90;;;;;;5021736;28;20049;-74
2022/05/06 00:50:51;;;;;;;0.68;0.68;;;6.90;99.90;;;;;;5059640;28;20084;-75
2022/05/06 00:53:18;;;;;;;0.20;0.20;;;6.90;99.90;;;;;;5035152;28;20076;-75
2022/05/06 00:55:43;;;;;;;0.45;0.45;;;6.90;99.90;;;;;;5012702;28;20516;-75
2022/05/06 00:58:09;;;;;;;2.28;2.13;;;7.00;99.90;;;;;;5047534;28;20041;-75
2022/05/06 01:00:35;;;;;;;0.28;0.28;;;6.90;99.90;;;;;;5015882;28;20036;-74
2022/05/06 01:03:01;;;;;;;0.20;0.20;;;6.90;99.90;;;;;;5048831;28;20468;-74
2022/05/06 01:05:27;;;;;;;0.20;0.20;;;6.80;99.90;;;;;;5032622;28;20041;-74
2022/05/06 01:07:53;;;;;;;0.90;0.90;;;6.60;99.90;;;;;;5032759;28;20492;-75
2022/05/06 01:10:20;;;;;;;0.20;0.20;;;6.50;99.90;;;;;;5012903;28;20453;-75
2022/05/06 01:12:47;;;;;;;0.40;0.40;;;6.50;99.90;;;;;;5013056;28;20082;-75
2022/05/06 01:15:25;;;;;;;0.30;0.30;;;6.40;99.90;;;;;;5027309;28;20055;-74
2022/05/06 01:17:55;;;;;;;2.08;1.95;;;6.30;99.90;;;;;;5032127;28;20401;-75
2022/05/06 01:20:22;;;;;;;2.42;2.22;;;6.30;99.90;;;;;;5014076;28;20037;-75
2022/05/06 01:22:50;;;;;;;3.67;3.47;;;6.30;99.90;;;;;;5050262;28;20041;-74
2022/05/06 01:25:17;;;;;;;0.80;0.80;;;6.30;99.90;;;;;;5039329;28;20043;-75
2022/05/06 01:28:01;;;;;;;0.75;0.75;;;6.30;99.90;;;;;;5039750;28;20453;-75
2022/05/06 01:30:34;;;;;;;0.77;0.77;;;6.20;99.90;;;;;;5026330;28;20045;-75
2022/05/06 01:33:03;;;;;;;0.25;0.25;;;6.20;99.90;;;;;;5033501;28;20134;-75
2022/05/06 01:35:31;;;;;;;0.57;0.57;;;6.20;99.90;;;;;;5032654;28;20451;-75
2022/05/06 01:38:02;;;;;;;2.25;2.15;;;6.20;99.90;;;;;;5027036;28;20115;-75
2022/05/06 01:40:33;;;;;;;1.85;1.75;;;6.10;99.90;;;;;;5027224;28;20084;-75
2022/05/06 01:43:02;;;;;;;0.80;0.80;;;6.10;99.90;;;;;;4996013;28;20128;-74
2022/05/06 01:45:29;;;;;;;0.82;0.73;;;6.10;99.90;;;;;;5010686;28;20094;-74
2022/05/06 01:47:56;;;;;;;1.45;1.40;;;6.00;99.90;;;;;;5048455;28;20132;-74
2022/05/06 01:50:23;;;;;;;0.30;0.30;;;6.00;99.90;;;;;;5036211;28;20390;-74
2022/05/06 01:52:50;;;;;;;0.70;0.70;;;6.00;99.90;;;;;;5009267;28;20108;-75
2022/05/06 01:55:17;;;;;;;0.30;0.30;;;6.00;99.90;;;;;;5021586;28;20122;-75
2022/05/06 01:57:42;;;;;;;0.82;0.82;;;6.00;99.90;;;;;;5047302;28;20121;-74
2022/05/06 02:00:08;;;;;;;0.40;0.40;;;6.00;99.90;;;;;;5042312;28;20154;-75
2022/05/06 02:02:34;;;;;;;0.88;0.88;;;6.00;99.90;;;;;;5017148;28;20041;-75
2022/05/06 02:05:19;;;;;;;0.30;0.30;;;5.90;99.90;;;;;;5000421;28;20496;-74
2022/05/06 02:07:49;;;;;;;0.30;0.30;;;5.90;99.90;;;;;;5047009;28;20087;-75
2022/05/06 02:10:17;;;;;;;0.73;0.73;;;5.90;99.90;;;;;;5035895;28;20044;-75
2022/05/06 02:12:46;;;;;;;0.30;0.30;;;5.80;99.90;;;;;;5027859;28;20048;-75
2022/05/06 02:15:17;;;;;;;0.50;0.50;;;5.80;99.90;;;;;;5020003;28;20073;-75
2022/05/06 02:17:42;;;;;;;0.68;0.68;;;5.80;99.90;;;;;;5033012;28;20044;-74
2022/05/06 02:20:10;;;;;;;0.20;0.20;;;5.80;99.90;;;;;;5024595;28;20562;-74
2022/05/06 02:22:37;;;;;;;0.50;0.50;;;5.70;99.90;;;;;;5016284;28;20082;-74
2022/05/06 02:25:05;;;;;;;0.30;0.30;;;5.70;99.90;;;;;;5035953;28;20040;-75
2022/05/06 02:27:32;;;;;;;0.30;0.30;;;5.70;99.90;;;;;;5023138;28;20042;-75
2022/05/06 02:35:28;;;;;;;0.38;0.38;;;5.80;99.90;;;;;;5027673;28;20053;-75
2022/05/06 02:37:54;;;;;;;0.45;0.45;;;5.90;99.90;;;;;;4995320;28;20115;-75
2022/05/06 02:40:20;;;;;;;0.25;0.25;;;5.90;99.90;;;;;;5011555;28;20405;-75
2022/05/06 02:42:45;;;;;;;0.40;0.40;;;5.90;99.90;;;;;;5005786;28;20046;-74
2022/05/06 02:45:11;;;;;;;0.40;0.40;;;6.00;99.90;;;;;;5014578;28;20037;-74
2022/05/06 02:47:37;;;;;;;0.68;0.68;;;6.00;99.90;;;;;;5027297;28;20317;-75
2022/05/06 02:50:03;;;;;;;1.13;1.00;;;6.10;99.90;;;;;;5030808;28;20059;-74
2022/05/06 02:52:29;;;;;;;3.05;2.85;;;6.10;99.90;;;;;;5009735;28;20052;-74
2022/05/06 02:54:54;;;;;;;4.38;1.98;;;6.20;99.90;;;;;;5046573;28;20041;-75
2022/05/06 02:57:20;;;;;;;0.30;0.30;;;6.30;99.90;;;;;;5029541;28;20519;-75
2022/05/06 02:59:46;;;;;;;2.80;2.60;;;6.50;99.90;;;;;;5010953;28;20052;-75
2022/05/06 03:02:11;;;;;;;3.50;0.90;;;6.60;99.90;;;;;;5017991;28;20133;-75
2022/05/06 03:04:37;;;;;;;0.20;0.20;;;6.80;99.90;;;;;;5014948;28;20032;-74
2022/05/06 03:07:06;;;;;;;0.30;0.30;;;7.00;99.90;;;;;;5033625;28;20060;-75
2022/05/06 03:09:33;;;;;;;0.30;0.30;;;7.10;99.90;;;;;;5014229;28;20055;-75
2022/05/06 03:11:59;;;;;;;2.90;1.65;;;7.20;99.90;;;;;;5014369;28;20041;-75
2022/05/06 03:14:25;;;;;;;0.35;0.35;;;7.20;99.90;;;;;;5032488;28;20049;-75
2022/05/06 03:16:51;;;;;;;1.65;0.50;;;7.20;99.90;;;;;;5036135;28;20179;-75
2022/05/06 03:19:17;;;;;;;0.28;0.28;;;7.20;99.90;;;;;;5029854;28;20404;-75
2022/05/06 03:21:45;;;;;;;0.55;0.55;;;7.20;99.90;;;;;;5029168;28;20059;-75
2022/05/06 03:24:11;;;;;;;0.68;0.68;;;7.30;99.90;;;;;;5033034;28;20484;-75
2022/05/06 03:26:37;;;;;;;2.67;2.28;;;7.40;99.90;;;;;;5015287;28;20112;-75
2022/05/06 03:29:03;;;;;;;6.78;2.72;;;7.40;99.90;;;;;;5030131;28;20485;-75
2022/05/06 03:31:28;;;;;;;0.22;0.22;;;7.50;99.90;;;;;;5035787;28;20049;-75
2022/05/06 03:33:54;;;;;;;1.00;0.90;;;7.60;99.90;;;;;;5011766;28;20045;-75
2022/05/06 03:36:24;;;;;;;0.40;0.40;;;7.70;99.90;;;;;;5029410;28;20424;-75
2022/05/06 03:38:50;;;;;;;0.30;0.30;;;7.70;99.90;;;;;;5013969;28;20040;-75
2022/05/06 03:41:15;;;;;;;0.88;0.88;;;7.80;99.90;;;;;;5013902;28;20041;-75
2022/05/06 03:43:41;;;;;;;0.68;0.68;;;7.80;99.90;;;;;;5046089;28;20059;-75
2022/05/06 03:46:07;;;;;;;0.43;0.43;;;7.90;99.90;;;;;;5017732;28;20211;-75
2022/05/06 03:48:34;;;;;;;2.45;2.25;;;7.90;99.90;;;;;;5014017;28;20084;-75
2022/05/06 03:51:21;;;;;;;0.10;0.10;;;8.00;99.90;;;;;;5028896;28;20428;-75
2022/05/06 03:53:48;;;;;;;3.80;3.50;;;8.00;99.90;;;;;;5025399;28;20053;-75
2022/05/06 03:56:14;;;;;;;2.30;1.40;;;8.20;99.90;;;;;;5006777;28;20034;-76
2022/05/06 03:58:40;;;;;;;0.98;0.98;;;8.30;99.90;;;;;;5010239;28;20049;-75
2022/05/06 04:01:07;;;;;;;0.75;0.75;;;8.40;99.90;;;;;;5017877;28;20526;-75
2022/05/06 04:03:34;;;;;;;1.38;1.27;;;8.60;99.90;;;;;;5001640;28;20037;-75
2022/05/06 04:05:59;;;;;;;0.30;0.30;;;8.60;99.90;;;;;;5014414;28;20043;-75
2022/05/06 04:08:25;;;;;;;0.30;0.30;;;8.70;99.90;;;;;;5008135;28;20044;-75
2022/05/06 04:10:50;;;;;;;0.60;0.60;;;8.80;99.90;;;;;;5015853;28;20551;-75
2022/05/06 04:13:19;;;;;;;0.45;0.45;;;8.80;99.90;;;;;;5026992;28;20040;-75
2022/05/06 04:15:47;;;;;;;0.30;0.30;;;8.90;99.90;;;;;;5044493;28;20500;-75
2022/05/06 04:18:13;;;;;;;0.77;0.77;;;8.90;99.90;;;;;;5028725;28;20040;-75
2022/05/06 04:23:29;;;;;;;0.88;0.88;;;8.90;99.90;;;;;;5037678;28;20049;-75
2022/05/06 04:25:59;;;;;;;0.20;0.20;;;9.00;99.90;;;;;;5032381;28;20037;-76
2022/05/06 04:28:26;;;;;;;0.40;0.40;;;9.00;99.90;;;;;;5030788;28;20073;-75
2022/05/06 04:30:51;;;;;;;0.98;0.95;;;9.10;99.90;;;;;;5030717;28;20067;-75
2022/05/06 04:33:18;;;;;;;35.63;4.47;;;9.10;99.90;;;;;;5032533;28;20498;-75
2022/05/06 04:35:45;;;;;;;6.80;2.15;;;9.10;99.90;;;;;;5032568;28;20040;-75
2022/05/06 04:38:11;;;;;;;3.63;1.45;;;9.20;99.90;;;;;;5033369;28;20028;-75
2022/05/06 04:40:37;;;;;;;0.20;0.20;;;9.20;99.90;;;;;;5012593;28;20045;-75
2022/05/06 04:43:06;;;;;;;0.75;0.68;;;9.20;99.90;;;;;;5013436;28;20096;-75
2022/05/06 04:45:31;;;;;;;0.55;0.55;;;9.30;99.90;;;;;;5013763;28;20041;-75
2022/05/06 04:47:57;;;;;;;0.93;0.93;;;9.40;99.90;;;;;;5032520;28;20480;-75
2022/05/06 04:50:22;;;;;;;1.38;1.23;;;9.40;99.90;;;;;;5032904;28;20547;-75
2022/05/06 04:52:49;;;;;;;45.03;8.30;;;9.50;99.90;;;;;;5032130;28;20452;-75
2022/05/06 04:55:15;;;;;;;2.22;2.08;;;9.50;99.90;;;;;;5031317;28;20044;-76
2022/05/06 04:57:41;;;;;;;43.75;6.47;;;9.40;99.90;;;;;;5012533;28;20454;-75
2022/05/06 05:00:07;;;;;;;48.40;9.43;;;9.50;99.90;;;;;;5030378;28;20063;-75
2022/05/06 05:02:33;;;;;;;0.35;0.35;;;9.50;99.90;;;;;;5016897;28;20037;-75
2022/05/06 05:04:59;;;;;;;2.17;1.10;;;9.40;99.90;;;;;;5018159;28;20052;-75
2022/05/06 05:07:25;;;;;;;2.72;2.08;;;9.50;99.90;;;;;;5012922;28;20120;-75
2022/05/06 05:09:50;;;;;;;9.23;5.53;;;9.40;99.90;;;;;;5030929;28;20037;-73
2022/05/06 05:12:16;;;;;;;15.02;6.15;;;9.40;99.90;;;;;;5053918;28;20048;-75
2022/05/06 05:14:42;;;;;;;10.70;5.78;;;9.50;99.90;;;;;;5013070;28;20081;-75
2022/05/06 05:17:09;;;;;;;1.10;1.10;;;9.50;99.90;;;;;;5012881;28;20560;-75
2022/05/06 05:19:35;;;;;;;0.20;0.20;;;9.50;99.90;;;;;;5005614;28;20124;-75
2022/05/06 05:22:01;;;;;;;0.63;0.63;;;9.50;99.90;;;;;;5032265;28;20123;-76
2022/05/06 05:24:26;;;;;;;9.75;6.47;;;9.50;99.90;;;;;;5032835;28;20540;-76
2022/05/06 05:26:54;;;;;;;0.22;0.22;;;9.50;99.90;;;;;;5029114;28;20049;-76
2022/05/06 05:29:20;;;;;;;27.55;3.60;;;9.50;99.90;;;;;;5031507;28;20045;-76
2022/05/06 05:31:45;;;;;;;6.93;2.90;;;9.60;99.90;;;;;;5032411;28;20072;-76
2022/05/06 05:34:11;;;;;;;1.02;1.02;;;9.70;99.90;;;;;;5048351;28;20132;-76
2022/05/06 05:36:37;;;;;;;1.63;1.52;;;9.70;99.90;;;;;;5019941;28;20049;-76
2022/05/06 05:39:03;;;;;;;1.73;1.63;;;9.80;99.90;;;;;;5015598;28;20408;-76
2022/05/06 05:41:28;;;;;;;2.45;1.50;;;9.90;99.90;;;;;;5032266;28;20507;-76
2022/05/06 05:49:22;;;;;;;11.63;2.35;;;10.20;99.90;;;;;;5037475;28;20044;-75
2022/05/06 05:51:48;;;;;;;0.57;0.57;;;10.20;99.90;;;;;;5015613;28;20064;-76
2022/05/06 05:54:15;;;;;;;0.60;0.60;;;10.30;99.90;;;;;;5048401;28;20045;-76
2022/05/06 05:56:41;;;;;;;12.95;2.15;;;10.30;99.90;;;;;;5034708;28;20055;-76
2022/05/06 05:59:07;;;;;;;6.72;3.03;;;10.40;99.90;;;;;;5029439;28;20040;-76
2022/05/06 06:01:32;;;;;;;36.45;9.52;;;10.40;99.90;;;;;;5023961;28;20493;-74
2022/05/06 06:03:58;;;;;;;11.50;5.13;;;10.40;99.90;;;;;;5032432;28;20079;-73
2022/05/06 06:06:24;;;;;;;29.88;5.68;;;10.40;99.90;;;;;;5033716;28;20101;-76
2022/05/06 06:08:49;;;;;;;6.25;3.10;;;10.50;99.90;;;;;;5015000;28;20066;-76
2022/05/06 06:11:15;;;;;;;2.25;2.05;;;10.50;99.90;;;;;;5014711;28;20047;-74
2022/05/06 06:13:41;;;;;;;2.60;2.08;;;10.60;99.90;;;;;;5048273;28;20044;-74
2022/05/06 06:16:06;;;;;;;145.23;18.35;;;10.80;99.90;;;;;;5018262;28;20131;-74
2022/05/06 06:18:32;;;;;;;56.90;32.30;;;10.90;99.90;;;;;;5015021;28;20047;-73
2022/05/06 06:20:57;;;;;;;4.53;3.15;;;11.10;99.90;;;;;;5031760;28;20488;-74
2022/05/06 06:23:24;;;;;;;1.75;0.77;;;11.10;99.90;;;;;;5040632;28;20091;-74
2022/05/06 06:25:49;;;;;;;29.73;10.13;;;11.20;99.90;;;;;;5032565;28;20045;-74
2022/05/06 06:28:16;;;;;;;18.38;11.23;;;11.20;99.90;;;;;;5030780;28;20036;-74
2022/05/06 06:30:41;;;;;;;5.47;4.00;;;11.10;99.90;;;;;;5027310;28;20123;-74
2022/05/06 06:33:08;;;;;;;4.18;1.67;;;11.10;99.90;;;;;;5032066;28;20144;-74
2022/05/06 06:35:33;;;;;;;4.22;3.83;;;11.10;99.90;;;;;;4999875;28;20184;-73
2022/05/06 06:38:00;;;;;;;2.28;2.10;;;11.10;99.90;;;;;;5006551;28;20641;-74
2022/05/06 06:40:26;;;;;;;4.93;2.92;;;11.20;99.90;;;;;;5014934;28;20041;-74
2022/05/06 06:42:52;;;;;;;0.50;0.50;;;11.30;99.90;;;;;;4999969;28;20045;-74
2022/05/06 06:45:18;;;;;;;3.67;1.38;;;11.30;99.90;;;;;;5021701;28;20379;-74
2022/05/06 06:47:44;;;;;;;1.88;1.33;;;11.40;99.90;;;;;;5028764;28;20483;-74
2022/05/06 06:50:10;;;;;;;4.95;2.53;;;11.50;99.90;;;;;;5015073;28;20068;-74
2022/05/06 06:52:36;;;;;;;0.93;0.90;;;11.60;99.90;;;;;;5040001;28;20052;-74
2022/05/06 06:55:02;;;;;;;1.60;1.50;;;11.60;99.90;;;;;;5011890;28;20469;-74
2022/05/06 06:57:31;;;;;;;0.57;0.57;;;11.60;99.90;;;;;;5034301;28;20032;-74
2022/05/06 06:59:56;;;;;;;7.22;4.53;;;11.60;99.90;;;;;;5009595;28;20045;-74
2022/05/06 07:02:22;;;;;;;16.60;6.13;;;11.70;99.90;;;;;;5015615;28;20044;-74
2022/05/06 07:04:47;;;;;;;7.75;4.45;;;11.70;99.90;;;;;;5007524;28;20131;-74
2022/05/06 07:12:42;;;;;;;0.20;0.20;;;12.10;99.90;;;;;;5025272;28;20052;-74
2022/05/06 07:15:08;;;;;;;0.57;0.57;;;12.20;99.90;;;;;;5043073;28;20091;-74
2022/05/06 07:17:34;;;;;;;0.80;0.70;;;12.40;99.90;;;;;;5012906;28;20044;-74
2022/05/06 07:20:00;;;;;;;3.83;1.42;;;12.40;99.90;;;;;;5008028;28;20045;-74
2022/05/06 07:22:25;;;;;;;12.77;6.63;;;12.40;99.90;;;;;;5035239;28;20064;-74
2022/05/06 07:24:51;;;;;;;0.38;0.38;;;12.40;99.90;;;;;;5031514;28;20493;-74
2022/05/06 07:27:18;;;;;;;1.85;1.67;;;12.40;99.90;;;;;;5031551;28;20064;-75
2022/05/06 07:29:44;;;;;;;0.20;0.20;;;12.30;99.90;;;;;;5005845;28;20528;-74
2022/05/06 07:32:10;;;;;;;0.85;0.82;;;12.40;99.90;;;;;;5016164;28;20051;-74
2022/05/06 07:34:36;;;;;;;2.13;0.93;;;12.60;99.90;;;;;;5032197;28;20041;-74
2022/05/06 07:37:02;;;;;;;13.68;1.88;;;12.90;99.90;;;;;;5031267;28;20420;-74
2022/05/06 07:39:27;;;;;;;0.57;0.57;;;13.00;99.90;;;;;;5014545;28;20045;-73
2022/05/06 07:41:53;;;;;;;0.30;0.30;;;13.10;99.90;;;;;;5032592;28;20048;-74
2022/05/06 07:44:19;;;;;;;11.93;2.03;;;13.10;99.90;;;;;;5030950;28;20400;-74
2022/05/06 07:46:45;;;;;;;0.95;0.95;;;13.20;99.90;;;;;;5029282;28;20463;-74
2022/05/06 07:49:10;;;;;;;2.50;1.80;;;13.30;99.90;;;;;;5030837;28;20037;-74
2022/05/06 07:51:37;;;;;;;2.20;1.77;;;13.30;99.90;;;;;;5030257;28;20065;-74
2022/05/06 07:54:03;;;;;;;0.70;0.70;;;13.40;99.90;;;;;;5044397;28;20122;-74
2022/05/06 07:56:29;;;;;;;3.72;2.17;;;13.50;99.90;;;;;;5041344;28;20052;-74
2022/05/06 07:58:56;;;;;;;2.92;0.73;;;13.70;99.90;;;;;;5036378;28;20037;-74
2022/05/06 08:06:51;;;;;;;0.20;0.20;;;14.10;99.90;;;;;;5034846;28;20049;-74
2022/05/06 08:09:17;;;;;;;0.70;0.70;;;14.30;99.90;;;;;;5018284;28;20059;-74
2022/05/06 08:11:43;;;;;;;0.28;0.28;;;14.40;99.90;;;;;;5032208;28;20416;-74
2022/05/06 08:14:08;;;;;;;0.43;0.43;;;14.60;99.90;;;;;;5000908;28;20078;-74
2022/05/06 08:16:34;;;;;;;5.22;2.38;;;14.80;99.90;;;;;;5031075;28;20047;-74
2022/05/06 08:19:00;;;;;;;2.33;1.92;;;15.10;99.90;;;;;;5010110;28;20547;-74
2022/05/06 08:21:25;;;;;;;0.10;0.10;;;15.10;99.90;;;;;;5029893;28;20040;-74
2022/05/06 08:23:52;;;;;;;1.52;1.42;;;15.10;99.90;;;;;;5032712;28;20043;-73
2022/05/06 08:26:18;;;;;;;0.95;0.95;;;15.30;99.90;;;;;;5001982;28;20073;-74
2022/05/06 08:28:44;;;;;;;2.35;2.05;;;15.30;99.90;;;;;;5010418;28;20071;-74
2022/05/06 08:31:10;;;;;;;1.63;1.52;;;15.30;99.90;;;;;;5021919;28;20093;-74
2022/05/06 08:33:35;;;;;;;1.38;1.25;;;15.20;99.90;;;;;;5011552;28;20045;-73
2022/05/06 08:36:01;;;;;;;0.25;0.25;;;15.10;99.90;;;;;;5034491;28;20495;-74
2022/05/06 08:38:27;;;;;;;0.63;0.63;;;15.10;99.90;;;;;;5016602;28;20133;-74
2022/05/06 08:40:53;;;;;;;2.30;0.68;;;15.30;99.90;;;;;;5017292;28;20032;-74
2022/05/06 08:43:19;;;;;;;1.45;0.77;;;15.50;99.90;;;;;;5030689;28;20043;-74
2022/05/06 08:51:16;;;;;;;0.32;0.32;;;16.20;99.90;;;;;;5031329;28;20049;-74
2022/05/06 08:53:41;;;;;;;1.95;1.60;;;16.50;99.90;;;;;;5008123;28;20040;-74
2022/05/06 08:56:08;;;;;;;1.33;1.20;;;16.70;99.90;;;;;;5031298;28;20045;-73
2022/05/06 08:58:35;;;;;;;2.60;2.15;;;16.80;99.90;;;;;;5038853;28;20175;-74
2022/05/06 09:01:07;;;;;;;0.47;0.47;;;16.90;99.90;;;;;;5015305;28;20033;-74
2022/05/06 09:03:33;;;;;;;2.72;2.47;;;17.10;99.90;;;;;;5042542;28;20380;-74
2022/05/06 09:05:59;;;;;;;3.35;2.47;;;17.20;99.90;;;;;;5018240;28;20037;-74
2022/05/06 09:08:41;;;;;;;2.35;1.95;;;17.10;99.90;;;;;;5007323;28;20653;-74
2022/05/06 09:11:10;;;;;;;4.45;1.75;;;17.20;99.90;;;;;;5032994;28;20037;-73
2022/05/06 09:13:35;;;;;;;0.73;0.73;;;17.20;99.90;;;;;;5010407;28;20451;-74
2022/05/06 09:16:39;;;;;;;0.75;0.75;;;17.20;99.90;;;;;;5032794;28;20036;-74
2022/05/06 09:19:14;;;;;;;0.85;0.82;;;17.60;99.90;;;;;;5047980;28;20033;-74
2022/05/06 09:21:41;;;;;;;1.70;1.42;;;18.30;99.90;;;;;;5032718;28;20049;-74
2022/05/06 09:24:19;;;;;;;0.70;0.70;;;19.10;99.90;;;;;;5048794;28;20076;-74
2022/05/06 09:27:02;;;;;;;2.20;2.00;;;19.60;99.90;;;;;;5032736;28;20036;-74
2022/05/06 09:29:33;;;;;;;1.80;0.95;;;20.30;99.90;;;;;;5015414;28;20106;-74
2022/05/06 09:32:25;;;;;;;2.80;2.05;;;20.70;99.90;;;;;;5048856;28;20507;-74
2022/05/06 09:34:50;;;;;;;3.97;1.95;;;21.20;99.90;;;;;;5013107;28;20505;-74
2022/05/06 09:37:30;;;;;;;0.57;0.55;;;21.60;99.90;;;;;;5012807;28;20176;-74
2022/05/06 09:40:08;;;;;;;1.92;1.75;;;21.50;99.90;;;;;;5013898;28;20049;-74
2022/05/06 09:42:37;;;;;;;1.42;1.33;;;21.50;99.90;;;;;;5034326;28;20038;-74
2022/05/06 09:45:03;;;;;;;2.00;1.15;;;21.40;99.90;;;;;;5012707;28;20084;-74
2022/05/06 09:47:30;;;;;;;1.95;1.10;;;21.50;99.90;;;;;;5012598;28;20048;-74
2022/05/06 09:49:56;;;;;;;352.08;65.65;;;21.20;99.90;;;;;;5010844;28;20061;-74
2022/05/06 09:52:21;;;;;;;0.60;0.60;;;21.20;99.90;;;;;;5012184;28;20053;-74
2022/05/06 09:54:48;;;;;;;9.55;1.02;;;21.00;99.70;;;;;;5012022;28;20104;-74
2022/05/06 09:57:20;;;;;;;1.67;1.38;;;20.90;99.90;;;;;;5018993;28;20515;-74
2022/05/06 09:59:47;;;;;;;341.52;77.38;;;21.00;99.90;;;;;;5031805;28;20059;-74
2022/05/06 10:02:13;;;;;;;0.93;0.93;;;21.30;99.90;;;;;;5048460;28;20409;-74
2022/05/06 10:04:43;;;;;;;107.07;36.20;;;21.50;99.90;;;;;;5042982;28;20041;-74
2022/05/06 10:07:12;;;;;;;2.20;1.83;;;21.60;99.90;;;;;;4995378;28;20104;-74
2022/05/06 10:10:01;;;;;;;2.15;1.83;;;21.60;99.20;;;;;;5021039;28;20064;-74
2022/05/06 10:12:30;;;;;;;3.92;1.25;;;21.30;98.40;;;;;;5011542;28;20049;-74
2022/05/06 10:14:57;;;;;;;1.98;1.80;;;21.30;98.70;;;;;;5027944;28;20041;-74
2022/05/06 10:18:02;;;;;;;4.63;3.15;;;21.30;97.70;;;;;;4995437;28;20388;-74
2022/05/06 10:20:36;;;;;;;3.60;2.03;;;21.40;97.80;;;;;;5014015;28;20083;-74
2022/05/06 10:23:08;;;;;;;4.60;2.72;;;21.20;95.80;;;;;;5011051;28;20052;-74
2022/05/06 10:25:42;;;;;;;4.97;2.28;;;21.00;94.10;;;;;;5011813;28;20100;-74
2022/05/06 10:34:12;;;;;;;0.65;0.55;;;21.00;94.50;;;;;;5011698;28;20045;-74
2022/05/06 10:36:51;;;;;;;0.30;0.30;;;21.20;95.10;;;;;;5011191;28;20505;-74
2022/05/06 10:39:22;;;;;;;1.02;0.85;;;21.50;93.10;;;;;;5011384;28;20513;-73
2022/05/06 10:42:10;;;;;;;0.40;0.40;;;21.80;94.10;;;;;;4999966;28;20077;-74
2022/05/06 10:44:45;;;;;;;3.92;3.42;;;21.90;86.60;;;;;;5030968;28;20084;-74
2022/05/06 10:47:11;;;;;;;0.35;0.35;;;21.80;86.10;;;;;;5003971;28;20429;-74
2022/05/06 10:49:39;;;;;;;1.25;0.50;;;21.50;85.40;;;;;;5011272;28;20175;-73
2022/05/06 10:52:20;;;;;;;0.82;0.77;;;21.40;88.80;;;;;;5015552;28;20048;-74
2022/05/06 10:54:54;;;;;;;0.65;0.65;;;21.40;87.30;;;;;;5014465;28;20049;-74
2022/05/06 10:57:24;;;;;;;1.52;1.40;;;21.50;90.40;;;;;;5017762;28;20149;-73
2022/05/06 10:59:53;;;;;;;1.90;1.15;;;21.70;89.00;;;;;;4994689;28;20045;-74
2022/05/06 11:02:27;;;;;;;2.25;1.50;;;21.80;87.60;;;;;;4997454;28;20047;-74
2022/05/06 11:04:57;;;;;;;0.10;0.10;;;22.00;84.80;;;;;;5027748;28;20048;-74
2022/05/06 11:07:23;;;;;;;1.30;1.20;;;22.00;84.60;;;;;;5020306;28;20049;-74
2022/05/06 11:09:51;;;;;;;0.22;0.22;;;22.10;84.60;;;;;;5013775;28;20046;-73
2022/05/06 11:12:40;;;;;;;0.88;0.88;;;22.30;85.20;;;;;;5030605;28;20067;-74
2022/05/06 11:15:08;;;;;;;4.45;4.07;;;22.50;81.80;;;;;;5029390;28;20044;-74
2022/05/06 11:17:35;;;;;;;1.10;1.00;;;22.30;82.10;;;;;;5046908;28;20056;-74
2022/05/06 11:20:16;;;;;;;6.47;2.05;;;22.10;80.40;;;;;;5030588;28;20045;-74
2022/05/06 11:22:54;;;;;;;4.22;2.10;;;22.00;79.90;;;;;;5005776;28;20045;-73
2022/05/06 11:25:24;;;;;;;0.75;0.75;;;21.70;79.80;;;;;;5008129;28;20068;-74
2022/05/06 11:27:51;;;;;;;0.80;0.80;;;21.50;80.50;;;;;;5010188;28;20046;-74
2022/05/06 11:30:18;;;;;;;0.63;0.63;;;21.40;81.30;;;;;;5012198;28;20042;-74
2022/05/06 11:32:55;;;;;;;0.70;0.70;;;21.30;82.60;;;;;;5014940;28;20406;-73
2022/05/06 11:35:47;;;;;;;3.35;0.80;;;21.30;82.20;;;;;;5023737;28;20041;-74
2022/05/06 11:38:14;;;;;;;0.82;0.82;;;21.40;82.50;;;;;;5033661;28;20465;-74
2022/05/06 11:40:40;;;;;;;1.85;1.38;;;21.50;85.10;;;;;;5017737;28;20455;-74
2022/05/06 11:43:07;;;;;;;2.25;1.77;;;21.70;83.50;;;;;;5033876;28;20091;-74
2022/05/06 11:48:22;;;;;;;1.50;1.23;;;22.10;83.10;;;;;;5050415;28;20049;-74
2022/05/06 11:50:54;;;;;;;1.77;1.45;;;21.90;81.40;;;;;;5017733;28;20069;-74
2022/05/06 11:53:21;;;;;;;0.80;0.80;;;22.10;83.90;;;;;;5033241;28;20115;-73
2022/05/06 11:55:46;;;;;;;1.73;1.00;;;22.30;83.30;;;;;;5033008;28;20041;-73
2022/05/06 11:58:16;;;;;;;6.82;1.60;;;22.50;81.90;;;;;;5034016;28;20060;-73
2022/05/06 12:00:43;;;;;;;6.72;1.50;;;22.20;76.00;;;;;;5016921;28;20033;-73
2022/05/06 12:03:10;;;;;;;14.60;1.10;;;21.50;76.80;;;;;;5017440;28;20095;-73
2022/05/06 12:05:37;;;;;;;0.95;0.90;;;21.10;80.80;;;;;;5017133;28;20076;-74
2022/05/06 12:08:04;;;;;;;7.93;1.23;;;21.20;84.50;;;;;;5033898;28;20049;-73
2022/05/06 12:10:33;;;;;;;0.50;0.50;;;21.50;87.00;;;;;;5017840;28;20076;-73
2022/05/06 12:13:07;;;;;;;0.30;0.30;;;22.00;87.10;;;;;;5017542;28;20044;-74
2022/05/06 12:15:38;;;;;;;366.85;29.00;;;22.10;84.10;;;;;;5001669;28;20467;-74
2022/05/06 12:18:09;;;;;;;1.20;1.10;;;22.50;83.20;;;;;;5025540;28;20049;-74
2022/05/06 12:20:43;;;;;;;2.85;1.45;;;22.90;86.80;;;;;;5049547;28;20052;-73
2022/05/06 12:23:11;;;;;;;5.00;1.55;;;23.20;84.50;;;;;;5017349;28;20048;-73
2022/05/06 12:25:40;;;;;;;2.38;1.92;;;23.10;82.00;;;;;;5033885;28;20087;-74
2022/05/06 12:28:19;;;;;;;559.00;113.38;;;22.80;81.00;;;;;;5015887;28;20055;-74
2022/05/06 12:30:46;;;;;;;0.15;0.15;;;22.30;78.50;;;;;;5016869;28;20048;-74
2022/05/06 12:33:14;;;;;;;0.40;0.40;;;22.00;81.10;;;;;;5012763;28;20048;-73
2022/05/06 12:36:00;;;;;;;2.10;1.40;;;21.70;81.70;;;;;;5013856;28;20049;-73
2022/05/06 12:38:44;;;;;;;2.33;1.92;;;21.50;81.60;;;;;;5017461;28;20041;-74
2022/05/06 12:41:18;;;;;;;1.08;1.08;;;21.30;83.00;;;;;;5029536;28;20401;-74
2022/05/06 12:43:43;;;;;;;0.82;0.77;;;21.20;84.90;;;;;;4997281;28;20398;-74
2022/05/06 12:46:09;;;;;;;4.07;3.83;;;21.20;83.70;;;;;;5023295;28;20047;-74
2022/05/06 12:51:19;;;;;;;289.90;41.17;;;21.30;86.00;;;;;;5021421;28;20045;-74
2022/05/06 12:53:44;;;;;;;2.28;2.08;;;21.30;86.00;;;;;;5033209;28;20044;-74
2022/05/06 12:56:18;;;;;;;4.10;2.60;;;21.30;86.20;;;;;;5031302;28;20040;-74
2022/05/06 12:58:44;;;;;;;1.95;1.67;;;21.40;85.60;;;;;;5032885;28;20047;-74
2022/05/06 13:01:10;;;;;;;2.40;1.52;;;21.30;85.00;;;;;;5016528;28;20049;-73
2022/05/06 13:03:35;;;;;;;3.28;1.65;;;21.10;84.20;;;;;;5032767;28;20128;-73
2022/05/06 13:06:01;;;;;;;3.00;2.30;;;21.20;86.30;;;;;;4999389;28;20442;-73
2022/05/06 13:08:27;;;;;;;7.13;1.85;;;21.60;85.60;;;;;;5013159;28;20080;-73
2022/05/06 13:10:53;;;;;;;4.32;4.05;;;22.10;83.10;;;;;;5023179;28;20076;-73
2022/05/06 13:13:19;;;;;;;2.97;2.00;;;22.60;84.10;;;;;;5015873;28;20484;-73
2022/05/06 13:15:44;;;;;;;354.67;83.38;;;22.90;84.20;;;;;;5032784;28;20044;-73
2022/05/06 13:18:10;;;;;;;1.73;1.40;;;23.20;82.40;;;;;;5027006;28;20037;-74
2022/05/06 13:20:36;;;;;;;1.45;1.15;;;23.10;77.10;;;;;;5014938;28;20129;-74
2022/05/06 13:23:02;;;;;;;0.95;0.77;;;23.00;76.70;;;;;;5049260;28;20127;-73
2022/05/06 13:25:28;;;;;;;687.30;101.30;;;23.10;77.30;;;;;;5045804;28;20604;-74
2022/05/06 13:27:54;;;;;;;28.83;25.92;;;23.30;77.40;;;;;;5013298;28;20037;-73
2022/05/06 13:30:20;;;;;;;5.32;2.70;;;23.30;77.60;;;;;;5022412;28;20044;-73
2022/05/06 13:32:46;;;;;;;1.77;1.63;;;23.00;77.60;;;;;;5029774;28;20493;-73
2022/05/06 13:35:12;;;;;;;335.33;125.78;;;22.80;76.70;;;;;;5048101;28;20043;-74
2022/05/06 13:37:37;;;;;;;1.95;1.60;;;22.60;78.00;;;;;;5032259;28;20049;-73